Vischer Ferry, New York
Current Conditions -  °F | °C
As of 9:12 AM on Monday 24 Nov 2014 (Local Time) from KALB Reporting Station
Light Rain Light Rain  
Wind Chill: 58°   Ceiling: 700
Heat Index: 58°   Visibility: 7mi
Dew Point: 55°   Wind: 13mph
Humidity: 90%   Direction: 170°S
Pressure: 29.6"   Gusts: NA
Location:  42.8404°N, 73.8521°W
Report Text: KALB 241412Z 17011KT 7SM -RA BKN007 BKN019 OVC050 14/13 A2960 RMK AO2 RAB12 P0000 T01440128
Loading
Personal Weather Stations






























Interactive Weather Map New forecast layout! Learn more

10-Day Weather Forecast

Advertisements
Track Severe Weather on mobile